Terminal Aerodrome Forecast
Issued by NWS

Home | Current Version | Previous Version | Text Only | Print | Product List | Glossary On
Versions: 1 2 3 4 5 6 7 8 9 10 11 12 13 14 15 16 17 18 19 20 21 22 23 24 25 26 27 28
000
FTUS43 KBIS 281700
TAFMOT
TAF
KMOT 281731Z 2818/2918 35006KT P6SM OVC011
     FM282200 01006KT P6SM OVC015
     FM290200 31008KT P6SM SCT015 BKN040
     FM290800 30007KT P6SM SCT250=

USA.gov is the U.S. government's official web portal to all federal, state and local government web resources and services.